createdAt,value
2023-05-02T00:00:58.965Z,9.85
2023-05-02T00:03:27.354Z,9.84
2023-05-02T00:05:55.212Z,9.86
2023-05-02T00:08:22.819Z,9.91
2023-05-02T00:10:50.416Z,10.10
2023-05-02T00:13:19.318Z,10.08
2023-05-02T00:15:47.042Z,9.92
2023-05-02T00:18:14.825Z,9.84
2023-05-02T00:20:42.538Z,9.86
2023-05-02T00:23:12.118Z,9.94
2023-05-02T00:25:45.399Z,9.77
2023-05-02T00:28:13.869Z,9.89
2023-05-02T00:30:45.463Z,9.89
2023-05-02T00:33:16.012Z,9.72
2023-05-02T00:35:43.725Z,9.57
2023-05-02T00:38:11.331Z,9.49
2023-05-02T00:40:46.362Z,9.33
2023-05-02T00:43:14.293Z,9.30
2023-05-02T00:45:43.497Z,9.36
2023-05-02T00:48:12.783Z,9.46
2023-05-02T00:50:42.167Z,9.55
2023-05-02T00:53:10.318Z,9.46
2023-05-02T00:55:38.053Z,9.50
2023-05-02T00:58:08.475Z,9.47
2023-05-02T01:00:43.243Z,9.48
2023-05-02T01:03:19.020Z,9.53
2023-05-02T01:05:51.853Z,9.44
2023-05-02T01:08:24.908Z,9.50
2023-05-02T01:10:57.413Z,9.50
2023-05-02T01:13:27.385Z,9.47
2023-05-02T01:15:57.349Z,9.45
2023-05-02T01:18:29.336Z,9.38
2023-05-02T01:21:00.103Z,9.41
2023-05-02T01:23:34.123Z,9.18
2023-05-02T01:26:10.221Z,9.01
2023-05-02T01:28:45.948Z,9.12
2023-05-02T01:31:13.672Z,8.97
2023-05-02T01:33:41.590Z,9.02
2023-05-02T01:36:09.761Z,9.01
2023-05-02T01:38:38.722Z,9.04
2023-05-02T01:41:07.399Z,8.90
2023-05-02T01:43:36.263Z,9.11
2023-05-02T01:46:06.389Z,9.23
2023-05-02T01:48:34.132Z,9.33
2023-05-02T01:51:02.473Z,9.33
2023-05-02T01:53:30.938Z,9.37
2023-05-02T01:55:59.729Z,9.46
2023-05-02T01:58:28.296Z,9.45
2023-05-02T02:00:56.814Z,9.48
2023-05-02T02:03:26.177Z,9.43
2023-05-02T02:05:54.882Z,9.37
2023-05-02T02:08:22.546Z,9.42
2023-05-02T02:10:55.483Z,9.31
2023-05-02T02:13:27.895Z,9.29
2023-05-02T02:16:00.888Z,9.46
2023-05-02T02:18:30.530Z,9.55
2023-05-02T02:21:00.827Z,9.70
2023-05-02T02:23:29.791Z,9.71
2023-05-02T02:25:58.069Z,9.71
2023-05-02T02:28:25.702Z,9.71
2023-05-02T02:30:53.427Z,9.63
2023-05-02T02:33:21.591Z,9.43
2023-05-02T02:35:55.771Z,9.19
2023-05-02T02:38:28.335Z,9.03
2023-05-02T02:40:57.597Z,8.97
2023-05-02T02:43:29.005Z,8.91
2023-05-02T02:46:05.966Z,8.84
2023-05-02T02:48:36.947Z,8.72
2023-05-02T02:51:12.762Z,8.67
2023-05-02T02:53:48.348Z,8.65
2023-05-02T02:56:18.103Z,8.59
2023-05-02T02:58:50.073Z,8.62
2023-05-02T03:01:20.758Z,8.64
2023-05-02T03:03:49.568Z,8.66
2023-05-02T03:06:19.225Z,8.62
2023-05-02T03:08:47.262Z,8.53
2023-05-02T03:11:14.871Z,8.53
2023-05-02T03:13:42.408Z,8.62
2023-05-02T03:16:37.123Z,8.60
2023-05-02T03:19:05.827Z,8.52
2023-05-02T03:21:35.289Z,8.45
2023-05-02T03:24:04.313Z,8.50
2023-05-02T03:26:32.072Z,8.70
2023-05-02T03:28:59.747Z,8.76
2023-05-02T03:31:27.419Z,8.87
2023-05-02T03:33:55.304Z,8.89
2023-05-02T03:36:22.883Z,8.93
2023-05-02T03:38:51.852Z,9.05
2023-05-02T03:41:20.918Z,9.10
2023-05-02T03:43:48.717Z,9.15
2023-05-02T03:46:16.291Z,9.24
2023-05-02T03:48:46.386Z,9.29
2023-05-02T03:51:13.971Z,9.29
2023-05-02T03:53:41.560Z,9.34
2023-05-02T03:56:10.579Z,9.30
2023-05-02T03:58:38.170Z,9.29
2023-05-02T04:01:05.996Z,9.29
2023-05-02T04:03:33.671Z,9.20
2023-05-02T04:06:01.335Z,9.14
2023-05-02T04:08:28.883Z,9.05
2023-05-02T04:10:56.443Z,9.00
2023-05-02T04:13:25.316Z,8.94
2023-05-02T04:15:52.904Z,8.95
2023-05-02T04:18:20.509Z,8.98
2023-05-02T04:20:48.193Z,8.97
2023-05-02T04:23:15.858Z,9.02
2023-05-02T04:25:43.817Z,9.21
2023-05-02T04:28:11.418Z,9.27
2023-05-02T04:30:40.404Z,9.38
2023-05-02T04:33:08.335Z,9.39
2023-05-02T04:35:36.023Z,9.32
2023-05-02T04:38:03.584Z,9.45
2023-05-02T04:40:31.172Z,9.54
2023-05-02T04:42:58.754Z,9.61
2023-05-02T04:45:26.670Z,9.76
2023-05-02T04:47:55.967Z,9.73
2023-05-02T04:50:23.698Z,9.79
2023-05-02T04:52:51.294Z,9.94
2023-05-02T04:55:18.867Z,10.01
2023-05-02T04:57:46.464Z,9.97
2023-05-02T05:00:15.509Z,9.99
2023-05-02T05:02:43.263Z,10.07
2023-05-02T05:05:12.481Z,10.10
2023-05-02T05:07:40.890Z,10.14
2023-05-02T05:10:11.260Z,10.20
2023-05-02T05:12:38.978Z,10.27
2023-05-02T05:15:07.136Z,10.25
2023-05-02T05:17:34.841Z,10.15
2023-05-02T05:20:02.684Z,10.30
2023-05-02T05:22:31.878Z,10.29
2023-05-02T05:24:59.578Z,10.39
2023-05-02T05:27:27.177Z,10.27
2023-05-02T05:29:55.788Z,10.28
2023-05-02T05:32:24.266Z,10.39
2023-05-02T05:34:53.034Z,10.55
2023-05-02T05:37:21.445Z,10.60
2023-05-02T05:39:50.358Z,10.72
2023-05-02T05:42:18.007Z,10.71
2023-05-02T05:44:45.774Z,10.72
2023-05-02T05:47:13.355Z,10.63
2023-05-02T05:49:40.998Z,10.70
2023-05-02T05:52:08.750Z,10.75
2023-05-02T05:54:36.368Z,10.85
2023-05-02T05:57:05.377Z,10.83
2023-05-02T05:59:36.094Z,10.81
2023-05-02T06:02:03.950Z,10.91
2023-05-02T06:04:31.681Z,10.94
2023-05-02T06:06:59.339Z,10.94
2023-05-02T06:09:27.213Z,10.92
2023-05-02T06:11:54.743Z,11.02
2023-05-02T06:14:24.165Z,10.96
2023-05-02T06:16:51.764Z,10.84
2023-05-02T06:19:19.342Z,10.92
2023-05-02T06:21:46.944Z,11.00
2023-05-02T06:24:14.556Z,11.15
2023-05-02T06:26:42.123Z,11.20
2023-05-02T06:29:09.715Z,11.22
2023-05-02T06:31:38.911Z,11.21
2023-05-02T06:34:06.943Z,11.35
2023-05-02T06:36:34.548Z,11.28
2023-05-02T06:39:02.223Z,11.27
2023-05-02T06:41:29.905Z,11.14
2023-05-02T06:43:57.676Z,11.15
2023-05-02T06:46:25.588Z,11.16
2023-05-02T06:48:54.564Z,11.14
2023-05-02T06:51:22.467Z,11.30
2023-05-02T06:53:50.181Z,11.41
2023-05-02T06:56:17.929Z,11.45
2023-05-02T06:58:45.519Z,11.63
2023-05-02T07:01:13.560Z,11.76
2023-05-02T07:03:41.195Z,11.73
2023-05-02T07:06:10.453Z,11.76
2023-05-02T07:08:38.032Z,11.91
2023-05-02T07:11:05.672Z,12.05
2023-05-02T07:13:33.216Z,12.34
2023-05-02T07:16:00.969Z,12.68
2023-05-02T07:18:28.587Z,12.70
2023-05-02T07:20:56.236Z,12.64
2023-05-02T07:23:25.206Z,12.62
2023-05-02T07:25:52.758Z,12.43
2023-05-02T07:28:20.312Z,12.42
2023-05-02T07:30:47.974Z,12.50
2023-05-02T07:33:16.455Z,12.45
2023-05-02T07:35:44.276Z,12.33
2023-05-02T07:38:11.845Z,12.33
2023-05-02T07:40:40.738Z,12.38
2023-05-02T07:43:09.920Z,12.44
2023-05-02T07:45:38.777Z,12.38
2023-05-02T07:48:06.689Z,12.37
2023-05-02T07:50:34.296Z,12.41
2023-05-02T07:53:01.855Z,12.38
2023-05-02T07:55:30.500Z,12.39
2023-05-02T07:57:59.443Z,12.32
2023-05-02T08:00:27.460Z,12.35
2023-05-02T08:02:55.258Z,12.40
2023-05-02T08:05:23.164Z,12.42
2023-05-02T08:07:50.810Z,12.40
2023-05-02T08:10:18.669Z,12.39
2023-05-02T08:12:46.289Z,12.21
2023-05-02T08:15:15.222Z,12.28
2023-05-02T08:17:42.911Z,12.25
2023-05-02T08:20:11.057Z,12.15
2023-05-02T08:22:38.677Z,12.07
2023-05-02T08:25:07.166Z,12.09
2023-05-02T08:27:35.356Z,12.19
2023-05-02T08:30:03.291Z,12.30
2023-05-02T08:32:33.234Z,12.16
2023-05-02T08:35:00.798Z,12.21
2023-05-02T08:37:28.396Z,12.13
2023-05-02T08:39:55.944Z,12.12
2023-05-02T08:42:23.708Z,12.22
2023-05-02T08:44:51.583Z,12.17
2023-05-02T08:47:19.892Z,12.15
2023-05-02T08:49:49.850Z,12.36
2023-05-02T08:52:18.706Z,12.34
2023-05-02T08:54:46.564Z,12.49
2023-05-02T08:57:14.133Z,12.60
2023-05-02T08:59:43.604Z,12.81
2023-05-02T09:02:31.935Z,12.74
2023-05-02T09:05:03.096Z,12.74
2023-05-02T09:07:30.893Z,12.80
2023-05-02T09:09:59.074Z,13.19
2023-05-02T09:12:27.616Z,13.62
2023-05-02T09:15:10.319Z,13.92
2023-05-02T09:17:42.481Z,14.18
2023-05-02T09:20:12.527Z,14.16
2023-05-02T09:22:40.469Z,14.12
2023-05-02T09:25:08.653Z,14.02
2023-05-02T09:27:53.184Z,14.34
2023-05-02T09:30:22.551Z,14.57
2023-05-02T09:32:55.807Z,14.70
2023-05-02T09:35:25.887Z,14.68
2023-05-02T09:37:54.677Z,14.61
2023-05-02T09:40:23.201Z,14.64
2023-05-02T09:42:54.616Z,14.59
2023-05-02T09:45:23.274Z,14.57
2023-05-02T09:47:51.310Z,14.37
2023-05-02T09:50:37.846Z,14.65
2023-05-02T09:53:06.204Z,14.77
2023-05-02T09:55:33.971Z,14.89
2023-05-02T09:58:01.950Z,15.18
2023-05-02T10:00:42.882Z,14.93
2023-05-02T10:03:11.296Z,15.16
2023-05-02T10:05:40.976Z,15.15
2023-05-02T10:08:10.348Z,15.07
2023-05-02T10:10:40.007Z,15.25
2023-05-02T10:13:09.445Z,15.12
2023-05-02T10:15:44.240Z,15.03
2023-05-02T10:18:15.108Z,15.11
2023-05-02T10:20:50.567Z,15.00
2023-05-02T10:23:18.323Z,14.82
2023-05-02T10:25:46.230Z,14.89
2023-05-02T10:28:14.181Z,14.94
2023-05-02T10:30:42.397Z,15.00
2023-05-02T10:33:10.090Z,15.03
2023-05-02T10:35:38.632Z,15.15
2023-05-02T10:38:07.942Z,15.34
2023-05-02T10:40:35.821Z,15.16
2023-05-02T10:43:05.172Z,15.41
2023-05-02T10:45:34.202Z,15.40
2023-05-02T10:48:15.752Z,15.35
2023-05-02T10:50:44.905Z,15.44
2023-05-02T10:53:30.491Z,15.45
2023-05-02T10:56:18.621Z,15.26
2023-05-02T10:58:46.810Z,15.37
2023-05-02T11:01:34.214Z,15.46
2023-05-02T11:04:03.278Z,15.70
2023-05-02T11:06:33.409Z,16.04
2023-05-02T11:09:36.393Z,16.19
2023-05-02T11:12:05.707Z,15.74
2023-05-02T11:14:44.707Z,15.43
2023-05-02T11:17:12.387Z,16.02
2023-05-02T11:20:22.937Z,16.52
2023-05-02T11:22:51.403Z,16.11
2023-05-02T11:25:34.735Z,16.28
2023-05-02T11:28:03.040Z,16.36
2023-05-02T11:30:41.894Z,16.70
2023-05-02T11:33:17.522Z,17.11
2023-05-02T11:35:46.768Z,17.27
2023-05-02T11:38:16.336Z,17.55
2023-05-02T11:40:53.099Z,17.41
2023-05-02T11:43:25.074Z,17.41
2023-05-02T11:45:53.671Z,17.72
2023-05-02T11:48:23.273Z,17.91
2023-05-02T11:50:52.357Z,17.87
2023-05-02T11:53:23.319Z,17.60
2023-05-02T11:55:53.775Z,17.48
2023-05-02T11:58:22.978Z,17.13
2023-05-02T12:00:51.695Z,17.34
2023-05-02T12:03:24.645Z,17.42
2023-05-02T12:05:52.671Z,17.21
2023-05-02T12:08:21.943Z,17.10
2023-05-02T12:10:50.858Z,17.16
2023-05-02T12:13:21.155Z,16.96
2023-05-02T12:15:49.830Z,16.59
2023-05-02T12:18:19.449Z,16.67
2023-05-02T12:20:48.465Z,16.56
2023-05-02T12:23:16.206Z,16.32
2023-05-02T12:25:44.483Z,16.24
2023-05-02T12:28:12.137Z,15.97
2023-05-02T12:30:41.799Z,15.93
2023-05-02T12:33:09.730Z,16.08
2023-05-02T12:35:37.585Z,16.01
2023-05-02T12:38:16.731Z,16.01
2023-05-02T12:40:49.464Z,16.17
2023-05-02T12:43:17.509Z,16.42
2023-05-02T12:45:48.642Z,16.44
2023-05-02T12:48:24.561Z,16.40
2023-05-02T12:50:52.406Z,16.42
2023-05-02T12:53:42.017Z,16.56
2023-05-02T12:56:10.395Z,16.64
2023-05-02T12:58:42.808Z,16.65
2023-05-02T13:01:15.778Z,16.94
2023-05-02T13:03:44.392Z,16.91
2023-05-02T13:06:12.135Z,17.53
2023-05-02T13:08:39.773Z,17.49
2023-05-02T13:11:07.333Z,17.59
2023-05-02T13:13:35.512Z,17.44
2023-05-02T13:16:03.937Z,17.32
2023-05-02T13:18:32.897Z,17.17
2023-05-02T13:21:00.488Z,17.07
2023-05-02T13:23:28.227Z,17.04
2023-05-02T13:25:55.771Z,17.12
2023-05-02T13:28:23.522Z,17.24
2023-05-02T13:30:51.408Z,17.31
2023-05-02T13:33:19.170Z,17.14
2023-05-02T13:35:48.134Z,17.17
2023-05-02T13:38:15.718Z,17.14
2023-05-02T13:40:43.467Z,17.35
2023-05-02T13:43:10.989Z,17.19
2023-05-02T13:45:38.544Z,17.31
2023-05-02T13:48:07.069Z,17.30
2023-05-02T13:50:37.162Z,17.25
2023-05-02T13:53:06.097Z,17.26
2023-05-02T13:55:33.647Z,17.47
2023-05-02T13:58:01.481Z,17.39
2023-05-02T14:00:29.281Z,17.72
2023-05-02T14:02:56.894Z,17.81
2023-05-02T14:05:24.601Z,17.86
2023-05-02T14:07:52.151Z,18.14
2023-05-02T14:10:21.052Z,18.06
2023-05-02T14:12:48.827Z,17.79
2023-05-02T14:15:16.736Z,17.69
2023-05-02T14:17:44.349Z,17.75
2023-05-02T14:20:12.697Z,17.77
2023-05-02T14:22:40.277Z,18.03
2023-05-02T14:25:08.386Z,18.10
2023-05-02T14:27:37.317Z,18.20
2023-05-02T14:30:05.761Z,18.24
2023-05-02T14:32:33.866Z,18.04
2023-05-02T14:35:01.784Z,17.69
2023-05-02T14:37:29.405Z,17.73
2023-05-02T14:39:59.011Z,17.80
2023-05-02T14:42:27.038Z,17.84
2023-05-02T14:44:58.228Z,17.83
2023-05-02T14:47:30.712Z,18.12
2023-05-02T14:49:58.251Z,18.00
2023-05-02T14:52:25.987Z,18.03
2023-05-02T14:54:53.764Z,17.84
2023-05-02T14:57:21.451Z,18.01
2023-05-02T14:59:49.094Z,18.03
2023-05-02T15:02:18.022Z,17.57
2023-05-02T15:04:45.739Z,17.38
2023-05-02T15:07:13.501Z,17.29
2023-05-02T15:09:41.239Z,17.44
2023-05-02T15:12:09.118Z,17.49
2023-05-02T15:14:36.710Z,17.38
2023-05-02T15:17:04.464Z,17.44
2023-05-02T15:19:33.806Z,17.21
2023-05-02T15:22:01.682Z,17.20
2023-05-02T15:24:29.254Z,17.27
2023-05-02T15:26:57.336Z,17.24
2023-05-02T15:29:24.854Z,17.22
2023-05-02T15:31:52.551Z,17.08
2023-05-02T15:34:21.123Z,17.13
2023-05-02T15:36:51.748Z,16.92
2023-05-02T15:39:19.512Z,17.03
2023-05-02T15:41:47.737Z,17.06
2023-05-02T15:44:15.334Z,16.94
2023-05-02T15:46:46.718Z,17.09
2023-05-02T15:49:15.090Z,16.98
2023-05-02T15:51:42.660Z,16.94
2023-05-02T15:54:11.570Z,16.82
2023-05-02T15:56:39.134Z,16.82
2023-05-02T15:59:06.698Z,16.87
2023-05-02T16:01:34.367Z,16.69
2023-05-02T16:04:02.062Z,16.46
2023-05-02T16:06:30.953Z,16.52
2023-05-02T16:08:58.519Z,16.33
2023-05-02T16:11:27.408Z,16.46
2023-05-02T16:13:54.961Z,16.41
2023-05-02T16:16:22.726Z,16.38
2023-05-02T16:18:50.376Z,16.38
2023-05-02T16:21:17.957Z,16.42
2023-05-02T16:23:45.567Z,16.27
2023-05-02T16:26:13.169Z,16.27
2023-05-02T16:28:42.096Z,16.18
2023-05-02T16:31:11.422Z,16.00
2023-05-02T16:33:39.654Z,16.10
2023-05-02T16:36:07.858Z,15.94
2023-05-02T16:38:36.253Z,15.95
2023-05-02T16:41:05.597Z,15.97
2023-05-02T16:43:33.346Z,15.91
2023-05-02T16:46:02.854Z,16.01
2023-05-02T16:48:30.715Z,15.98
2023-05-02T16:50:58.627Z,16.00
2023-05-02T16:53:26.576Z,15.91
2023-05-02T16:55:54.971Z,15.93
2023-05-02T16:58:23.000Z,15.97
2023-05-02T17:00:50.717Z,15.95
2023-05-02T17:03:19.640Z,16.03
2023-05-02T17:05:47.222Z,15.95
2023-05-02T17:08:16.734Z,15.99
2023-05-02T17:10:49.321Z,15.92
2023-05-02T17:13:17.079Z,15.75
2023-05-02T17:15:44.717Z,15.60
2023-05-02T17:18:12.526Z,15.60
2023-05-02T17:20:41.758Z,15.10
2023-05-02T17:23:09.973Z,15.34
2023-05-02T17:25:38.186Z,15.16
2023-05-02T17:28:05.858Z,15.19
2023-05-02T17:30:33.954Z,15.06
2023-05-02T17:33:01.753Z,15.08
2023-05-02T17:35:29.419Z,15.14
2023-05-02T17:37:58.622Z,14.87
2023-05-02T17:40:26.973Z,14.83
2023-05-02T17:42:55.334Z,14.86
2023-05-02T17:45:23.203Z,14.70
2023-05-02T17:47:51.045Z,14.57
2023-05-02T17:50:18.711Z,14.56
2023-05-02T17:52:46.258Z,14.28
2023-05-02T17:55:16.469Z,14.10
2023-05-02T17:57:45.342Z,14.02
2023-05-02T18:00:13.770Z,13.97
2023-05-02T18:02:41.403Z,13.85
2023-05-02T18:05:09.571Z,13.85
2023-05-02T18:07:37.207Z,13.71
2023-05-02T18:10:06.654Z,13.58
2023-05-02T18:12:35.718Z,13.32
2023-05-02T18:15:05.751Z,13.42
2023-05-02T18:17:33.712Z,13.39
2023-05-02T18:20:04.182Z,13.25
2023-05-02T18:22:32.415Z,13.07
2023-05-02T18:25:00.667Z,12.91
2023-05-02T18:27:28.608Z,12.77
2023-05-02T18:29:57.644Z,12.65
2023-05-02T18:32:25.994Z,12.52
2023-05-02T18:34:53.709Z,12.32
2023-05-02T18:37:27.451Z,12.37
2023-05-02T18:39:56.235Z,12.30
2023-05-02T18:42:23.813Z,12.02
2023-05-02T18:44:51.377Z,12.05
2023-05-02T18:47:21.361Z,12.01
2023-05-02T18:49:50.354Z,11.87
2023-05-02T18:52:17.989Z,11.92
2023-05-02T18:54:45.566Z,11.87
2023-05-02T18:57:13.163Z,11.83
2023-05-02T18:59:40.799Z,11.81
2023-05-02T19:02:08.366Z,11.68
2023-05-02T19:04:37.262Z,11.60
2023-05-02T19:07:05.183Z,11.58
2023-05-02T19:09:32.744Z,11.64
2023-05-02T19:12:00.439Z,11.61
2023-05-02T19:14:27.990Z,11.44
2023-05-02T19:16:56.040Z,11.34
2023-05-02T19:19:23.789Z,11.23
2023-05-02T19:21:53.177Z,11.12
2023-05-02T19:24:21.138Z,10.98
2023-05-02T19:26:48.895Z,11.13
2023-05-02T19:29:16.553Z,11.05
2023-05-02T19:31:44.887Z,10.99
2023-05-02T19:34:12.515Z,10.82
2023-05-02T19:36:40.368Z,10.90
2023-05-02T19:39:10.642Z,10.72
2023-05-02T19:41:39.377Z,10.84
2023-05-02T19:44:07.024Z,10.77
2023-05-02T19:46:34.828Z,10.76
2023-05-02T19:49:02.701Z,10.69
2023-05-02T19:51:34.079Z,10.54
2023-05-02T19:54:01.831Z,10.52
2023-05-02T19:56:30.751Z,10.54
2023-05-02T19:58:58.675Z,10.53
2023-05-02T20:01:28.178Z,10.49
2023-05-02T20:03:55.833Z,10.41
2023-05-02T20:06:23.530Z,10.36
2023-05-02T20:08:52.419Z,10.39
2023-05-02T20:11:20.110Z,10.34
2023-05-02T20:13:49.151Z,10.35
2023-05-02T20:16:16.758Z,10.26
2023-05-02T20:18:44.457Z,10.21
2023-05-02T20:21:12.178Z,10.22
2023-05-02T20:23:43.175Z,10.13
2023-05-02T20:26:10.832Z,10.11
2023-05-02T20:28:38.662Z,10.19
2023-05-02T20:31:07.921Z,10.15
2023-05-02T20:33:44.562Z,10.01
2023-05-02T20:36:13.460Z,9.83
2023-05-02T20:38:42.556Z,9.98
2023-05-02T20:41:13.164Z,9.96
2023-05-02T20:43:44.220Z,9.87
2023-05-02T20:46:16.046Z,9.83
2023-05-02T20:48:43.749Z,9.63
2023-05-02T20:51:11.393Z,9.60
2023-05-02T20:53:39.164Z,9.56
2023-05-02T20:56:07.290Z,9.57
2023-05-02T20:58:34.979Z,9.54
2023-05-02T21:01:02.739Z,9.59
2023-05-02T21:03:31.983Z,9.67
2023-05-02T21:06:00.408Z,9.56
2023-05-02T21:08:28.015Z,9.45
2023-05-02T21:10:55.629Z,9.39
2023-05-02T21:13:23.200Z,9.18
2023-05-02T21:15:50.917Z,9.11
2023-05-02T21:18:18.529Z,9.10
2023-05-02T21:20:49.384Z,8.88
2023-05-02T21:23:17.070Z,8.76
2023-05-02T21:25:44.631Z,8.60
2023-05-02T21:28:12.378Z,8.56
2023-05-02T21:30:39.981Z,8.30
2023-05-02T21:33:07.793Z,8.54
2023-05-02T21:35:35.368Z,8.61
2023-05-02T21:38:04.430Z,8.58
2023-05-02T21:40:32.448Z,8.60
2023-05-02T21:43:00.066Z,8.56
2023-05-02T21:45:27.755Z,8.38
2023-05-02T21:47:55.370Z,8.35
2023-05-02T21:50:23.406Z,8.29
2023-05-02T21:52:51.138Z,8.21
2023-05-02T21:55:20.230Z,8.20
2023-05-02T21:57:47.795Z,8.27
2023-05-02T22:00:16.033Z,8.11
2023-05-02T22:02:43.769Z,8.00
2023-05-02T22:05:13.574Z,8.02
2023-05-02T22:07:41.736Z,8.11
2023-05-02T22:10:11.580Z,7.78
2023-05-02T22:12:40.496Z,7.81
2023-05-02T22:15:09.578Z,7.83
2023-05-02T22:17:37.334Z,7.59
2023-05-02T22:20:10.030Z,7.56
2023-05-02T22:22:37.724Z,7.66
2023-05-02T22:25:06.055Z,7.62
2023-05-02T22:27:33.808Z,7.58
2023-05-02T22:30:03.195Z,7.54
2023-05-02T22:32:31.036Z,7.48
2023-05-02T22:34:58.604Z,7.45
2023-05-02T22:37:26.233Z,7.49
2023-05-02T22:39:54.161Z,7.33
2023-05-02T22:42:21.804Z,7.29
2023-05-02T22:44:53.993Z,7.24
2023-05-02T22:47:23.684Z,7.25
2023-05-02T22:49:52.340Z,7.24
2023-05-02T22:52:20.891Z,7.23
2023-05-02T22:54:48.697Z,7.12
2023-05-02T22:57:16.272Z,7.19
2023-05-02T22:59:43.895Z,7.25
2023-05-02T23:02:12.478Z,7.19
2023-05-02T23:04:41.653Z,7.00
2023-05-02T23:07:09.291Z,7.08
2023-05-02T23:09:37.031Z,7.03
2023-05-02T23:12:05.727Z,7.13
2023-05-02T23:14:33.538Z,7.19
2023-05-02T23:17:02.376Z,7.04
2023-05-02T23:19:30.416Z,6.95
2023-05-02T23:22:00.134Z,7.06
2023-05-02T23:24:27.752Z,6.96
2023-05-02T23:26:55.506Z,7.05
2023-05-02T23:29:24.023Z,6.84
2023-05-02T23:31:52.450Z,6.82
2023-05-02T23:34:20.240Z,6.93
2023-05-02T23:36:48.804Z,6.90
2023-05-02T23:39:17.826Z,6.77
2023-05-02T23:41:45.389Z,6.86
2023-05-02T23:44:13.143Z,6.78
2023-05-02T23:46:40.835Z,6.73
2023-05-02T23:49:08.484Z,6.66
2023-05-02T23:51:37.628Z,6.60
2023-05-02T23:54:06.221Z,6.59
2023-05-02T23:56:35.174Z,6.66
2023-05-02T23:59:02.760Z,6.70
